Portada
METAR-TAF:

METAR-TAF

Aeropuertos :

Angulema, Francia

latitud: 45-43-46N, longitud: 00-13-08E, altitud: 132 m

Observación

El informe se hizo hace 34 minutos, a las 15:30 UTC
Viento 5 kt del noreste, variando entre norte y este-noreste
Temperatura 22°C
Humedad 60%
Presión 1015 hPa
Visibilidad 10 km o más
Escasas nubes a una altura de 3900 ft

METAR: LFBU 171530Z AUTO 04005KT 010V070 9999 FEW039 22/14 Q1015 NOSIG

Hora: 18:04 (16:04 UTC)

Pronóstico

El informe se hizo hace 5 horas y 4 minutos, a las 11:00 UTC
Pronóstico válido del 17 a las 12 UTC al 18 a las 12 UTC
Viento 3 kt con dirección variable
Visibilidad 10 km o más
Nubes dispersas a una altura de 3000 ft
Evolucionando progresivamente
del 17 a las 16 UTC al 17 a las 18 UTC
Viento 10 kt del norte-noreste
Visibilidad 10 km o más
sin nubes por debajo de 1500 m y sin presencia de cumulonimbus.

TAF: LFBU 171100Z 1712/1812 VRB03KT 9999 SCT030 BECMG 1716/1718 03010KT CAVOK

Observaciones y pronósticos meteorológicos de más de 4000 aeropuertos (mensajes METAR y TAF).

Los puntos amarillos y rojos representan las estaciones disponibles.

Ponga el ratón en el punto deseado para ver el nombre de la estación.

Haga clic para ver las observaciones y los pronósticos meteorológicos.

Para cambiar el mapa : haga clic en los botones verdes con una cruz de color negro para hacer un zoom, en el botón verde con un guión para alejar o en las flechas verdes para mapas adyacentes.


METAR-TAF: